<?xml version="1.0" encoding="UTF-8"?>
<gpx version="1.1" creator="https://www.youtrack.es" xsi:schemaLocation="http://www.topografix.com/GPX/1/1 http://www.topografix.com/GPX/1/1/gpx.xsd http://www.garmin.com/xmlschemas/GpxExtensions/v3 http://www.garmin.com/xmlschemas/GpxExtensionsv3.xsd http://www.garmin.com/xmlschemas/TrackPointExtension/v1 http://www.garmin.com/xmlschemas/TrackPointExtensionv1.xsd" xmlns:gpxtpx="http://www.garmin.com/xmlschemas/TrackPointExtension/v1" xmlns:gpxx="http://www.garmin.com/xmlschemas/GpxExtensions/v3" xmlns:xsi="http://www.w3.org/2001/XMLSchema-instance">
  <metadata>
    <author>
      <name>Dulce De Azúcar</name>
      <email id="dulcebocadodeazucar" domain="hotmail.es"/>
    </author>
    <link href="https://www.youtrack.es">
      <text>YouTrack.es</text>
    </link>
    <time>2026-05-10T15:32:43Z</time>
  </metadata>
  <trk>
    <src>https://www.youtrack.es</src>
    <link href="https://www.youtrack.es/ruta/528-entreno-22">
      <text>YouTrack.es</text>
    </link>
    <trkseg>
      <trkpt lat="38.1924189068377" lon="-0.6858964171260595">
        <ele>0.0</ele>
        <time>2018-05-03T14:54:55.000Z</time>
      </trkpt>
      <trkpt lat="38.1924189068377" lon="-0.6858964171260595">
        <ele>0.0</ele>
        <time>2018-05-03T14:54:56.000Z</time>
      </trkpt>
      <trkpt lat="38.1924189068377" lon="-0.6858964171260595">
        <ele>-0.20000000298023224</ele>
        <time>2018-05-03T14:55:05.000Z</time>
      </trkpt>
      <trkpt lat="38.192357467487454" lon="-0.6860093213617802">
        <ele>-0.4000000059604645</ele>
        <time>2018-05-03T14:55:11.000Z</time>
      </trkpt>
      <trkpt lat="38.192287562415004" lon="-0.6861254945397377">
        <ele>-0.4000000059604645</ele>
        <time>2018-05-03T14:55:14.000Z</time>
      </trkpt>
      <trkpt lat="38.19218781776726" lon="-0.6862903665751219">
        <ele>-0.6000000238418579</ele>
        <time>2018-05-03T14:55:17.000Z</time>
      </trkpt>
      <trkpt lat="38.19210265763104" lon="-0.686417268589139">
        <ele>-0.6000000238418579</ele>
        <time>2018-05-03T14:55:19.000Z</time>
      </trkpt>
      <trkpt lat="38.19196376949549" lon="-0.6866450887173414">
        <ele>-0.800000011920929</ele>
        <time>2018-05-03T14:55:22.000Z</time>
      </trkpt>
      <trkpt lat="38.19180568680167" lon="-0.6869053468108177">
        <ele>-1.2000000476837158</ele>
        <time>2018-05-03T14:55:25.000Z</time>
      </trkpt>
      <trkpt lat="38.191750617697835" lon="-0.6869977992027998">
        <ele>-1.399999976158142</ele>
        <time>2018-05-03T14:55:26.000Z</time>
      </trkpt>
      <trkpt lat="38.191590774804354" lon="-0.6873145513236523">
        <ele>-1.600000023841858</ele>
        <time>2018-05-03T14:55:29.000Z</time>
      </trkpt>
      <trkpt lat="38.19150469265878" lon="-0.6875595543533564">
        <ele>-1.7999999523162842</ele>
        <time>2018-05-03T14:55:31.000Z</time>
      </trkpt>
      <trkpt lat="38.19142640568316" lon="-0.6879622209817171">
        <ele>-2.200000047683716</ele>
        <time>2018-05-03T14:55:34.000Z</time>
      </trkpt>
      <trkpt lat="38.19138198159635" lon="-0.6885312683880329">
        <ele>-2.200000047683716</ele>
        <time>2018-05-03T14:55:38.000Z</time>
      </trkpt>
      <trkpt lat="38.19134904071689" lon="-0.6889547221362591">
        <ele>-2.4000000953674316</ele>
        <time>2018-05-03T14:55:41.000Z</time>
      </trkpt>
      <trkpt lat="38.19129187613726" lon="-0.6896555330604315">
        <ele>-2.4000000953674316</ele>
        <time>2018-05-03T14:55:46.000Z</time>
      </trkpt>
      <trkpt lat="38.19120638072491" lon="-0.6903491355478764">
        <ele>-2.4000000953674316</ele>
        <time>2018-05-03T14:55:51.000Z</time>
      </trkpt>
      <trkpt lat="38.191090039908886" lon="-0.6910309195518494">
        <ele>-2.5999999046325684</ele>
        <time>2018-05-03T14:55:56.000Z</time>
      </trkpt>
      <trkpt lat="38.190948301926255" lon="-0.6918277032673359">
        <ele>-2.4000000953674316</ele>
        <time>2018-05-03T14:56:02.000Z</time>
      </trkpt>
      <trkpt lat="38.19079457782209" lon="-0.6926083099097013">
        <ele>-2.200000047683716</ele>
        <time>2018-05-03T14:56:08.000Z</time>
      </trkpt>
      <trkpt lat="38.19050523452461" lon="-0.6932863220572472">
        <ele>-2.0</ele>
        <time>2018-05-03T14:56:14.000Z</time>
      </trkpt>
      <trkpt lat="38.19012922234833" lon="-0.6938723847270012">
        <ele>-1.7999999523162842</ele>
        <time>2018-05-03T14:56:20.000Z</time>
      </trkpt>
      <trkpt lat="38.18986929953098" lon="-0.6942657474428415">
        <ele>-1.7999999523162842</ele>
        <time>2018-05-03T14:56:24.000Z</time>
      </trkpt>
      <trkpt lat="38.18949823267758" lon="-0.6948847509920597">
        <ele>-1.7999999523162842</ele>
        <time>2018-05-03T14:56:30.000Z</time>
      </trkpt>
      <trkpt lat="38.189225401729345" lon="-0.6955668702721596">
        <ele>-1.7999999523162842</ele>
        <time>2018-05-03T14:56:36.000Z</time>
      </trkpt>
      <trkpt lat="38.188989283517" lon="-0.6962617300450802">
        <ele>-1.600000023841858</ele>
        <time>2018-05-03T14:56:42.000Z</time>
      </trkpt>
      <trkpt lat="38.188728438690305" lon="-0.6969136744737625">
        <ele>-1.399999976158142</ele>
        <time>2018-05-03T14:56:48.000Z</time>
      </trkpt>
      <trkpt lat="38.18835686892271" lon="-0.6974824704229832">
        <ele>-1.0</ele>
        <time>2018-05-03T14:56:54.000Z</time>
      </trkpt>
      <trkpt lat="38.188161654397845" lon="-0.6977688800543547">
        <ele>-0.800000011920929</ele>
        <time>2018-05-03T14:56:57.000Z</time>
      </trkpt>
      <trkpt lat="38.18778220564127" lon="-0.6983644142746925">
        <ele>-0.6000000238418579</ele>
        <time>2018-05-03T14:57:03.000Z</time>
      </trkpt>
      <trkpt lat="38.18756586872041" lon="-0.6990801449865103">
        <ele>-0.800000011920929</ele>
        <time>2018-05-03T14:57:09.000Z</time>
      </trkpt>
      <trkpt lat="38.187515242025256" lon="-0.6998420599848032">
        <ele>-0.6000000238418579</ele>
        <time>2018-05-03T14:57:15.000Z</time>
      </trkpt>
      <trkpt lat="38.187450701370835" lon="-0.7005965989083052">
        <ele>-0.6000000238418579</ele>
        <time>2018-05-03T14:57:21.000Z</time>
      </trkpt>
      <trkpt lat="38.187402253970504" lon="-0.7010767143219709">
        <ele>-0.20000000298023224</ele>
        <time>2018-05-03T14:57:25.000Z</time>
      </trkpt>
      <trkpt lat="38.18743812851608" lon="-0.7012937217950821">
        <ele>0.0</ele>
        <time>2018-05-03T14:57:27.000Z</time>
      </trkpt>
      <trkpt lat="38.18743837997317" lon="-0.7019513659179211">
        <ele>1.0</ele>
        <time>2018-05-03T14:57:33.000Z</time>
      </trkpt>
      <trkpt lat="38.18742077797651" lon="-0.7023057527840137">
        <ele>1.2000000476837158</ele>
        <time>2018-05-03T14:57:36.000Z</time>
      </trkpt>
      <trkpt lat="38.18735171109438" lon="-0.7030119281262159">
        <ele>1.600000023841858</ele>
        <time>2018-05-03T14:57:42.000Z</time>
      </trkpt>
      <trkpt lat="38.187276693060994" lon="-0.703754061833024">
        <ele>1.2000000476837158</ele>
        <time>2018-05-03T14:57:48.000Z</time>
      </trkpt>
      <trkpt lat="38.18720812909305" lon="-0.7045448943972588">
        <ele>1.2000000476837158</ele>
        <time>2018-05-03T14:57:54.000Z</time>
      </trkpt>
      <trkpt lat="38.18715104833245" lon="-0.7052431907504797">
        <ele>1.2000000476837158</ele>
        <time>2018-05-03T14:57:59.000Z</time>
      </trkpt>
      <trkpt lat="38.187104277312756" lon="-0.7060725800693035">
        <ele>0.800000011920929</ele>
        <time>2018-05-03T14:58:05.000Z</time>
      </trkpt>
      <trkpt lat="38.187067145481706" lon="-0.7068823557347059">
        <ele>0.800000011920929</ele>
        <time>2018-05-03T14:58:11.000Z</time>
      </trkpt>
      <trkpt lat="38.187072006985545" lon="-0.7076929695904255">
        <ele>0.800000011920929</ele>
        <time>2018-05-03T14:58:17.000Z</time>
      </trkpt>
      <trkpt lat="38.18709706887603" lon="-0.7085159048438072">
        <ele>0.800000011920929</ele>
        <time>2018-05-03T14:58:23.000Z</time>
      </trkpt>
      <trkpt lat="38.187120370566845" lon="-0.7093241717666388">
        <ele>0.6000000238418579</ele>
        <time>2018-05-03T14:58:29.000Z</time>
      </trkpt>
      <trkpt lat="38.18714744411409" lon="-0.7101277448236942">
        <ele>0.6000000238418579</ele>
        <time>2018-05-03T14:58:35.000Z</time>
      </trkpt>
      <trkpt lat="38.18717527203262" lon="-0.7105295732617378">
        <ele>0.800000011920929</ele>
        <time>2018-05-03T14:58:38.000Z</time>
      </trkpt>
      <trkpt lat="38.18730175495148" lon="-0.7110389415174723">
        <ele>1.0</ele>
        <time>2018-05-03T14:58:42.000Z</time>
      </trkpt>
      <trkpt lat="38.18754457868636" lon="-0.7117659877985716">
        <ele>1.2000000476837158</ele>
        <time>2018-05-03T14:58:48.000Z</time>
      </trkpt>
      <trkpt lat="38.18778748624027" lon="-0.7124923635274172">
        <ele>1.2000000476837158</ele>
        <time>2018-05-03T14:58:54.000Z</time>
      </trkpt>
      <trkpt lat="38.18798563443124" lon="-0.7132526021450758">
        <ele>1.0</ele>
        <time>2018-05-03T14:59:00.000Z</time>
      </trkpt>
      <trkpt lat="38.18815846927464" lon="-0.7140496373176575">
        <ele>1.2000000476837158</ele>
        <time>2018-05-03T14:59:06.000Z</time>
      </trkpt>
      <trkpt lat="38.18820968270302" lon="-0.7147484365850687">
        <ele>1.0</ele>
        <time>2018-05-03T14:59:11.000Z</time>
      </trkpt>
      <trkpt lat="38.18824773654342" lon="-0.7155887223780155">
        <ele>0.20000000298023224</ele>
        <time>2018-05-03T14:59:17.000Z</time>
      </trkpt>
      <trkpt lat="38.18835452198982" lon="-0.7164095621556044">
        <ele>-0.4000000059604645</ele>
        <time>2018-05-03T14:59:23.000Z</time>
      </trkpt>
      <trkpt lat="38.188518807291985" lon="-0.7172039989382029">
        <ele>-0.4000000059604645</ele>
        <time>2018-05-03T14:59:29.000Z</time>
      </trkpt>
      <trkpt lat="38.18868669681251" lon="-0.7179861143231392">
        <ele>-0.4000000059604645</ele>
        <time>2018-05-03T14:59:35.000Z</time>
      </trkpt>
      <trkpt lat="38.18885768763721" lon="-0.718749538064003">
        <ele>-0.4000000059604645</ele>
        <time>2018-05-03T14:59:41.000Z</time>
      </trkpt>
      <trkpt lat="38.18910730071366" lon="-0.7194484211504459">
        <ele>-0.4000000059604645</ele>
        <time>2018-05-03T14:59:47.000Z</time>
      </trkpt>
      <trkpt lat="38.18913864903152" lon="-0.7195506803691387">
        <ele>-0.4000000059604645</ele>
        <time>2018-05-03T14:59:48.000Z</time>
      </trkpt>
      <trkpt lat="38.18888685666025" lon="-0.7197828590869904">
        <ele>0.0</ele>
        <time>2018-05-03T14:59:53.000Z</time>
      </trkpt>
      <trkpt lat="38.1888045463711" lon="-0.7197983656078577">
        <ele>-0.20000000298023224</ele>
        <time>2018-05-03T14:59:54.000Z</time>
      </trkpt>
      <trkpt lat="38.188382433727384" lon="-0.7203087396919727">
        <ele>0.0</ele>
        <time>2018-05-03T15:00:01.000Z</time>
      </trkpt>
      <trkpt lat="38.18823893554509" lon="-0.7210100535303354">
        <ele>0.0</ele>
        <time>2018-05-03T15:00:07.000Z</time>
      </trkpt>
      <trkpt lat="38.18824882619083" lon="-0.7217978686094284">
        <ele>-0.20000000298023224</ele>
        <time>2018-05-03T15:00:13.000Z</time>
      </trkpt>
      <trkpt lat="38.18826885893941" lon="-0.722618792206049">
        <ele>-0.4000000059604645</ele>
        <time>2018-05-03T15:00:19.000Z</time>
      </trkpt>
      <trkpt lat="38.188285790383816" lon="-0.7234467566013336">
        <ele>-0.6000000238418579</ele>
        <time>2018-05-03T15:00:25.000Z</time>
      </trkpt>
      <trkpt lat="38.188291657716036" lon="-0.7237219344824553">
        <ele>-1.0</ele>
        <time>2018-05-03T15:00:27.000Z</time>
      </trkpt>
      <trkpt lat="38.18828880786896" lon="-0.7245395053178072">
        <ele>-1.7999999523162842</ele>
        <time>2018-05-03T15:00:33.000Z</time>
      </trkpt>
      <trkpt lat="38.18828394636512" lon="-0.7253611832857132">
        <ele>-2.200000047683716</ele>
        <time>2018-05-03T15:00:39.000Z</time>
      </trkpt>
      <trkpt lat="38.18837304599583" lon="-0.7261790055781603">
        <ele>-2.200000047683716</ele>
        <time>2018-05-03T15:00:45.000Z</time>
      </trkpt>
      <trkpt lat="38.18868476897478" lon="-0.7268972508609295">
        <ele>-2.200000047683716</ele>
        <time>2018-05-03T15:00:51.000Z</time>
      </trkpt>
      <trkpt lat="38.188744029030204" lon="-0.727009903639555">
        <ele>-2.200000047683716</ele>
        <time>2018-05-03T15:00:52.000Z</time>
      </trkpt>
      <trkpt lat="38.18909891881049" lon="-0.7276771869510412">
        <ele>-2.5999999046325684</ele>
        <time>2018-05-03T15:00:58.000Z</time>
      </trkpt>
      <trkpt lat="38.189454982057214" lon="-0.7283320650458336">
        <ele>-2.4000000953674316</ele>
        <time>2018-05-03T15:01:04.000Z</time>
      </trkpt>
      <trkpt lat="38.18972923792899" lon="-0.7288750447332859">
        <ele>-2.4000000953674316</ele>
        <time>2018-05-03T15:01:09.000Z</time>
      </trkpt>
      <trkpt lat="38.18982956930995" lon="-0.7294958923012018">
        <ele>-2.4000000953674316</ele>
        <time>2018-05-03T15:01:14.000Z</time>
      </trkpt>
      <trkpt lat="38.189871897920966" lon="-0.7302739843726158">
        <ele>-2.5999999046325684</ele>
        <time>2018-05-03T15:01:20.000Z</time>
      </trkpt>
      <trkpt lat="38.18991883657873" lon="-0.7309293653815985">
        <ele>-3.0</ele>
        <time>2018-05-03T15:01:25.000Z</time>
      </trkpt>
      <trkpt lat="38.18979545496404" lon="-0.7314288429915905">
        <ele>-3.0</ele>
        <time>2018-05-03T15:01:29.000Z</time>
      </trkpt>
      <trkpt lat="38.1895611807704" lon="-0.7321521174162626">
        <ele>-3.200000047683716</ele>
        <time>2018-05-03T15:01:35.000Z</time>
      </trkpt>
      <trkpt lat="38.18932397291064" lon="-0.7328668422996998">
        <ele>-3.4000000953674316</ele>
        <time>2018-05-03T15:01:41.000Z</time>
      </trkpt>
      <trkpt lat="38.18925314582884" lon="-0.7331086602061987">
        <ele>-3.4000000953674316</ele>
        <time>2018-05-03T15:01:43.000Z</time>
      </trkpt>
      <trkpt lat="38.189340736716986" lon="-0.7338554039597511">
        <ele>-3.799999952316284</ele>
        <time>2018-05-03T15:01:49.000Z</time>
      </trkpt>
      <trkpt lat="38.18945959210396" lon="-0.7340647839009762">
        <ele>-3.799999952316284</ele>
        <time>2018-05-03T15:01:51.000Z</time>
      </trkpt>
      <trkpt lat="38.18984616547823" lon="-0.7346534449607134">
        <ele>-3.799999952316284</ele>
        <time>2018-05-03T15:01:57.000Z</time>
      </trkpt>
      <trkpt lat="38.1902277097106" lon="-0.7352362386882305">
        <ele>-4.0</ele>
        <time>2018-05-03T15:02:03.000Z</time>
      </trkpt>
      <trkpt lat="38.19060321897268" lon="-0.7358098961412907">
        <ele>-4.0</ele>
        <time>2018-05-03T15:02:09.000Z</time>
      </trkpt>
      <trkpt lat="38.190972190350294" lon="-0.7363807875663042">
        <ele>-4.0</ele>
        <time>2018-05-03T15:02:15.000Z</time>
      </trkpt>
      <trkpt lat="38.19103840738535" lon="-0.7364700548350811">
        <ele>-3.799999952316284</ele>
        <time>2018-05-03T15:02:16.000Z</time>
      </trkpt>
      <trkpt lat="38.19157149642706" lon="-0.7367452327162027">
        <ele>-4.0</ele>
        <time>2018-05-03T15:02:22.000Z</time>
      </trkpt>
      <trkpt lat="38.192041805014014" lon="-0.736653283238411">
        <ele>-4.0</ele>
        <time>2018-05-03T15:02:27.000Z</time>
      </trkpt>
      <trkpt lat="38.19265712052584" lon="-0.7364035025238991">
        <ele>-4.400000095367432</ele>
        <time>2018-05-03T15:02:34.000Z</time>
      </trkpt>
      <trkpt lat="38.193268245086074" lon="-0.7361510396003723">
        <ele>-4.400000095367432</ele>
        <time>2018-05-03T15:02:41.000Z</time>
      </trkpt>
      <trkpt lat="38.19370184093714" lon="-0.7360198628157377">
        <ele>-4.199999809265137</ele>
        <time>2018-05-03T15:02:46.000Z</time>
      </trkpt>
      <trkpt lat="38.19405145011842" lon="-0.7360502891242504">
        <ele>-4.0</ele>
        <time>2018-05-03T15:02:50.000Z</time>
      </trkpt>
      <trkpt lat="38.19448026828468" lon="-0.7361836452037096">
        <ele>-3.200000047683716</ele>
        <time>2018-05-03T15:02:55.000Z</time>
      </trkpt>
      <trkpt lat="38.19493565708399" lon="-0.736670047044754">
        <ele>-3.0</ele>
        <time>2018-05-03T15:03:02.000Z</time>
      </trkpt>
      <trkpt lat="38.19506607949734" lon="-0.7370889745652676">
        <ele>-3.0</ele>
        <time>2018-05-03T15:03:06.000Z</time>
      </trkpt>
      <trkpt lat="38.195143109187484" lon="-0.7374309562146664">
        <ele>-2.5999999046325684</ele>
        <time>2018-05-03T15:03:09.000Z</time>
      </trkpt>
      <trkpt lat="38.19532876834273" lon="-0.7382410671561956">
        <ele>-2.4000000953674316</ele>
        <time>2018-05-03T15:03:16.000Z</time>
      </trkpt>
      <trkpt lat="38.1954875215888" lon="-0.7389496732503176">
        <ele>-2.4000000953674316</ele>
        <time>2018-05-03T15:03:22.000Z</time>
      </trkpt>
      <trkpt lat="38.19564761593938" lon="-0.7396667450666428">
        <ele>-2.5999999046325684</ele>
        <time>2018-05-03T15:03:28.000Z</time>
      </trkpt>
      <trkpt lat="38.195815756917" lon="-0.7403989043086767">
        <ele>-2.5999999046325684</ele>
        <time>2018-05-03T15:03:34.000Z</time>
      </trkpt>
      <trkpt lat="38.19598389789462" lon="-0.7411435525864363">
        <ele>-2.799999952316284</ele>
        <time>2018-05-03T15:03:40.000Z</time>
      </trkpt>
      <trkpt lat="38.19614768028259" lon="-0.7418704312294722">
        <ele>-3.4000000953674316</ele>
        <time>2018-05-03T15:03:46.000Z</time>
      </trkpt>
      <trkpt lat="38.196230409666896" lon="-0.7422242313623428">
        <ele>-3.5999999046325684</ele>
        <time>2018-05-03T15:03:49.000Z</time>
      </trkpt>
      <trkpt lat="38.196384804323316" lon="-0.7429207675158978">
        <ele>-3.799999952316284</ele>
        <time>2018-05-03T15:03:55.000Z</time>
      </trkpt>
      <trkpt lat="38.196542132645845" lon="-0.7436066586524248">
        <ele>-3.799999952316284</ele>
        <time>2018-05-03T15:04:01.000Z</time>
      </trkpt>
      <trkpt lat="38.19670767523348" lon="-0.7442919630557299">
        <ele>-3.799999952316284</ele>
        <time>2018-05-03T15:04:07.000Z</time>
      </trkpt>
      <trkpt lat="38.19697153754532" lon="-0.7449231203645468">
        <ele>-3.799999952316284</ele>
        <time>2018-05-03T15:04:13.000Z</time>
      </trkpt>
      <trkpt lat="38.19735391996801" lon="-0.7455972768366337">
        <ele>-4.0</ele>
        <time>2018-05-03T15:04:20.000Z</time>
      </trkpt>
      <trkpt lat="38.19769707508385" lon="-0.7461746223270893">
        <ele>-4.400000095367432</ele>
        <time>2018-05-03T15:04:26.000Z</time>
      </trkpt>
      <trkpt lat="38.19804064929485" lon="-0.7467656303197145">
        <ele>-4.599999904632568</ele>
        <time>2018-05-03T15:04:32.000Z</time>
      </trkpt>
      <trkpt lat="38.19810586050153" lon="-0.7468581665307283">
        <ele>-4.599999904632568</ele>
        <time>2018-05-03T15:04:33.000Z</time>
      </trkpt>
      <trkpt lat="38.198528392240405" lon="-0.747156897559762">
        <ele>-4.599999904632568</ele>
        <time>2018-05-03T15:04:38.000Z</time>
      </trkpt>
      <trkpt lat="38.19907480850816" lon="-0.7473991345614195">
        <ele>-4.599999904632568</ele>
        <time>2018-05-03T15:04:44.000Z</time>
      </trkpt>
      <trkpt lat="38.1996098253876" lon="-0.7476315647363663">
        <ele>-4.800000190734863</ele>
        <time>2018-05-03T15:04:50.000Z</time>
      </trkpt>
      <trkpt lat="38.20011776871979" lon="-0.7479081675410271">
        <ele>-4.800000190734863</ele>
        <time>2018-05-03T15:04:56.000Z</time>
      </trkpt>
      <trkpt lat="38.200736017897725" lon="-0.7483703456819057">
        <ele>-4.199999809265137</ele>
        <time>2018-05-03T15:05:04.000Z</time>
      </trkpt>
      <trkpt lat="38.20119936950505" lon="-0.7487197034060955">
        <ele>-4.0</ele>
        <time>2018-05-03T15:05:10.000Z</time>
      </trkpt>
      <trkpt lat="38.2016664929688" lon="-0.7490660436451435">
        <ele>-4.0</ele>
        <time>2018-05-03T15:05:16.000Z</time>
      </trkpt>
      <trkpt lat="38.20220888592303" lon="-0.7494825404137373">
        <ele>-3.799999952316284</ele>
        <time>2018-05-03T15:05:23.000Z</time>
      </trkpt>
      <trkpt lat="38.202721271663904" lon="-0.7499334868043661">
        <ele>-3.4000000953674316</ele>
        <time>2018-05-03T15:05:30.000Z</time>
      </trkpt>
      <trkpt lat="38.203234327957034" lon="-0.7504038792103529">
        <ele>-3.200000047683716</ele>
        <time>2018-05-03T15:05:37.000Z</time>
      </trkpt>
      <trkpt lat="38.20367965847254" lon="-0.7508114911615849">
        <ele>-3.4000000953674316</ele>
        <time>2018-05-03T15:05:43.000Z</time>
      </trkpt>
      <trkpt lat="38.20413328707218" lon="-0.7512253057211637">
        <ele>-3.799999952316284</ele>
        <time>2018-05-03T15:05:49.000Z</time>
      </trkpt>
      <trkpt lat="38.204561937600374" lon="-0.7516693789511919">
        <ele>-3.799999952316284</ele>
        <time>2018-05-03T15:05:55.000Z</time>
      </trkpt>
      <trkpt lat="38.20493275299668" lon="-0.7522215787321329">
        <ele>-3.799999952316284</ele>
        <time>2018-05-03T15:06:01.000Z</time>
      </trkpt>
      <trkpt lat="38.20530356839299" lon="-0.7527896203100681">
        <ele>-4.0</ele>
        <time>2018-05-03T15:06:07.000Z</time>
      </trkpt>
      <trkpt lat="38.205673545598984" lon="-0.7533588353544474">
        <ele>-3.799999952316284</ele>
        <time>2018-05-03T15:06:13.000Z</time>
      </trkpt>
      <trkpt lat="38.20605014450848" lon="-0.7539319898933172">
        <ele>-3.200000047683716</ele>
        <time>2018-05-03T15:06:19.000Z</time>
      </trkpt>
      <trkpt lat="38.20617511868477" lon="-0.7541224267333746">
        <ele>-3.0</ele>
        <time>2018-05-03T15:06:21.000Z</time>
      </trkpt>
      <trkpt lat="38.20650645531714" lon="-0.7547409273684025">
        <ele>-2.5999999046325684</ele>
        <time>2018-05-03T15:06:27.000Z</time>
      </trkpt>
      <trkpt lat="38.20660326629877" lon="-0.7552331127226353">
        <ele>-2.5999999046325684</ele>
        <time>2018-05-03T15:06:31.000Z</time>
      </trkpt>
      <trkpt lat="38.20678439922631" lon="-0.75636793859303">
        <ele>-2.5999999046325684</ele>
        <time>2018-05-03T15:06:40.000Z</time>
      </trkpt>
      <trkpt lat="38.20690115913749" lon="-0.7571273390203714">
        <ele>-2.5999999046325684</ele>
        <time>2018-05-03T15:06:46.000Z</time>
      </trkpt>
      <trkpt lat="38.20701749995351" lon="-0.7578633539378643">
        <ele>-2.4000000953674316</ele>
        <time>2018-05-03T15:06:52.000Z</time>
      </trkpt>
      <trkpt lat="38.20715446025133" lon="-0.7585817668586969">
        <ele>-2.4000000953674316</ele>
        <time>2018-05-03T15:06:58.000Z</time>
      </trkpt>
      <trkpt lat="38.207367612048984" lon="-0.7592650596052408">
        <ele>-2.200000047683716</ele>
        <time>2018-05-03T15:07:04.000Z</time>
      </trkpt>
      <trkpt lat="38.20761630311608" lon="-0.7599490229040384">
        <ele>-1.600000023841858</ele>
        <time>2018-05-03T15:07:10.000Z</time>
      </trkpt>
      <trkpt lat="38.20796406827867" lon="-0.7605869695544243">
        <ele>-1.2000000476837158</ele>
        <time>2018-05-03T15:07:16.000Z</time>
      </trkpt>
      <trkpt lat="38.20807537995279" lon="-0.7608016300946474">
        <ele>-1.2000000476837158</ele>
        <time>2018-05-03T15:07:18.000Z</time>
      </trkpt>
      <trkpt lat="38.20812089368701" lon="-0.7609173003584146">
        <ele>-1.2000000476837158</ele>
        <time>2018-05-03T15:07:19.000Z</time>
      </trkpt>
      <trkpt lat="38.20829389616847" lon="-0.7616637926548719">
        <ele>-1.399999976158142</ele>
        <time>2018-05-03T15:07:25.000Z</time>
      </trkpt>
      <trkpt lat="38.20845893584192" lon="-0.7624294795095921">
        <ele>-1.7999999523162842</ele>
        <time>2018-05-03T15:07:31.000Z</time>
      </trkpt>
      <trkpt lat="38.20860696025193" lon="-0.7631990220397711">
        <ele>-1.7999999523162842</ele>
        <time>2018-05-03T15:07:37.000Z</time>
      </trkpt>
      <trkpt lat="38.20869321003556" lon="-0.7639710791409016">
        <ele>-1.7999999523162842</ele>
        <time>2018-05-03T15:07:43.000Z</time>
      </trkpt>
      <trkpt lat="38.20876252837479" lon="-0.7647218462079763">
        <ele>-1.399999976158142</ele>
        <time>2018-05-03T15:07:49.000Z</time>
      </trkpt>
      <trkpt lat="38.20883042179048" lon="-0.7654595375061035">
        <ele>-1.0</ele>
        <time>2018-05-03T15:07:55.000Z</time>
      </trkpt>
      <trkpt lat="38.20882631465793" lon="-0.7662683073431253">
        <ele>-0.6000000238418579</ele>
        <time>2018-05-03T15:08:02.000Z</time>
      </trkpt>
      <trkpt lat="38.20874894969165" lon="-0.7667430583387613">
        <ele>0.0</ele>
        <time>2018-05-03T15:08:07.000Z</time>
      </trkpt>
      <trkpt lat="38.208736376836896" lon="-0.7668264582753181">
        <ele>0.20000000298023224</ele>
        <time>2018-05-03T15:08:08.000Z</time>
      </trkpt>
      <trkpt lat="38.20872439071536" lon="-0.7669023983180523">
        <ele>0.4000000059604645</ele>
        <time>2018-05-03T15:08:09.000Z</time>
      </trkpt>
      <trkpt lat="38.20868859998882" lon="-0.7669951859861612">
        <ele>1.2000000476837158</ele>
        <time>2018-05-03T15:08:12.000Z</time>
      </trkpt>
      <trkpt lat="38.20872154086828" lon="-0.7667712215334177">
        <ele>3.0</ele>
        <time>2018-05-03T15:08:18.000Z</time>
      </trkpt>
      <trkpt lat="38.20883369073272" lon="-0.7659927103668451">
        <ele>2.799999952316284</ele>
        <time>2018-05-03T15:08:27.000Z</time>
      </trkpt>
      <trkpt lat="38.20883327163756" lon="-0.765881733968854">
        <ele>2.4000000953674316</ele>
        <time>2018-05-03T15:08:28.000Z</time>
      </trkpt>
      <trkpt lat="38.2088156696409" lon="-0.7656525727361441">
        <ele>1.600000023841858</ele>
        <time>2018-05-03T15:08:30.000Z</time>
      </trkpt>
      <trkpt lat="38.20878499187529" lon="-0.7652886305004358">
        <ele>0.6000000238418579</ele>
        <time>2018-05-03T15:08:33.000Z</time>
      </trkpt>
      <trkpt lat="38.208748530596495" lon="-0.7649184018373489">
        <ele>-0.6000000238418579</ele>
        <time>2018-05-03T15:08:36.000Z</time>
      </trkpt>
      <trkpt lat="38.20868876762688" lon="-0.7643118873238564">
        <ele>-1.600000023841858</ele>
        <time>2018-05-03T15:08:41.000Z</time>
      </trkpt>
      <trkpt lat="38.208606289699674" lon="-0.7634779717773199">
        <ele>-2.0</ele>
        <time>2018-05-03T15:08:48.000Z</time>
      </trkpt>
      <trkpt lat="38.20847569964826" lon="-0.7627010531723499">
        <ele>-2.5999999046325684</ele>
        <time>2018-05-03T15:08:55.000Z</time>
      </trkpt>
      <trkpt lat="38.20845566689968" lon="-0.762598542496562">
        <ele>-3.0</ele>
        <time>2018-05-03T15:08:56.000Z</time>
      </trkpt>
      <trkpt lat="38.20818828418851" lon="-0.7613472919911146">
        <ele>-2.799999952316284</ele>
        <time>2018-05-03T15:09:08.000Z</time>
      </trkpt>
      <trkpt lat="38.20816439576447" lon="-0.7612420991063118">
        <ele>-2.799999952316284</ele>
        <time>2018-05-03T15:09:09.000Z</time>
      </trkpt>
      <trkpt lat="38.20763683877885" lon="-0.7600870728492737">
        <ele>-1.7999999523162842</ele>
        <time>2018-05-03T15:09:22.000Z</time>
      </trkpt>
      <trkpt lat="38.20759744383395" lon="-0.7599984761327505">
        <ele>-1.7999999523162842</ele>
        <time>2018-05-03T15:09:23.000Z</time>
      </trkpt>
      <trkpt lat="38.20689931511879" lon="-0.7574288360774517">
        <ele>-1.399999976158142</ele>
        <time>2018-05-03T15:09:51.000Z</time>
      </trkpt>
      <trkpt lat="38.20676243864" lon="-0.7565665896981955">
        <ele>-1.0</ele>
        <time>2018-05-03T15:10:01.000Z</time>
      </trkpt>
      <trkpt lat="38.206674847751856" lon="-0.7559884060174227">
        <ele>-1.2000000476837158</ele>
        <time>2018-05-03T15:10:07.000Z</time>
      </trkpt>
      <trkpt lat="38.20666076615453" lon="-0.7558912597596645">
        <ele>-1.2000000476837158</ele>
        <time>2018-05-03T15:10:08.000Z</time>
      </trkpt>
      <trkpt lat="38.20637879893184" lon="-0.7545150350779295">
        <ele>-1.600000023841858</ele>
        <time>2018-05-03T15:10:22.000Z</time>
      </trkpt>
      <trkpt lat="38.206337224692106" lon="-0.7544275280088186">
        <ele>-1.600000023841858</ele>
        <time>2018-05-03T15:10:23.000Z</time>
      </trkpt>
      <trkpt lat="38.205940341576934" lon="-0.7538096141070127">
        <ele>-1.399999976158142</ele>
        <time>2018-05-03T15:10:31.000Z</time>
      </trkpt>
      <trkpt lat="38.20523081347346" lon="-0.7527225650846958">
        <ele>2.0</ele>
        <time>2018-05-03T15:11:11.000Z</time>
      </trkpt>
      <trkpt lat="38.2052132114768" lon="-0.7526910491287708">
        <ele>2.0</ele>
        <time>2018-05-03T15:11:12.000Z</time>
      </trkpt>
      <trkpt lat="38.205171301960945" lon="-0.7526151929050684">
        <ele>1.7999999523162842</ele>
        <time>2018-05-03T15:11:14.000Z</time>
      </trkpt>
      <trkpt lat="38.20508161559701" lon="-0.7524911407381296">
        <ele>1.7999999523162842</ele>
        <time>2018-05-03T15:11:17.000Z</time>
      </trkpt>
      <trkpt lat="38.20469898171723" lon="-0.7519359234720469">
        <ele>0.800000011920929</ele>
        <time>2018-05-03T15:11:27.000Z</time>
      </trkpt>
      <trkpt lat="38.20437703281641" lon="-0.7515265513211489">
        <ele>0.0</ele>
        <time>2018-05-03T15:11:33.000Z</time>
      </trkpt>
      <trkpt lat="38.2041788008064" lon="-0.7513393834233284">
        <ele>-0.20000000298023224</ele>
        <time>2018-05-03T15:11:36.000Z</time>
      </trkpt>
      <trkpt lat="38.20376657880843" lon="-0.7509679812937975">
        <ele>-0.800000011920929</ele>
        <time>2018-05-03T15:11:42.000Z</time>
      </trkpt>
      <trkpt lat="38.20329585112631" lon="-0.7505472097545862">
        <ele>-1.0</ele>
        <time>2018-05-03T15:11:49.000Z</time>
      </trkpt>
      <trkpt lat="38.202842054888606" lon="-0.7501331437379122">
        <ele>-0.800000011920929</ele>
        <time>2018-05-03T15:11:56.000Z</time>
      </trkpt>
      <trkpt lat="38.20239236578345" lon="-0.7497316505759954">
        <ele>-1.0</ele>
        <time>2018-05-03T15:12:03.000Z</time>
      </trkpt>
      <trkpt lat="38.201933624222875" lon="-0.7493630144745111">
        <ele>-0.800000011920929</ele>
        <time>2018-05-03T15:12:10.000Z</time>
      </trkpt>
      <trkpt lat="38.20144856348634" lon="-0.74899697676301">
        <ele>-1.0</ele>
        <time>2018-05-03T15:12:17.000Z</time>
      </trkpt>
      <trkpt lat="38.200955959036946" lon="-0.7486222218722105">
        <ele>-1.0</ele>
        <time>2018-05-03T15:12:24.000Z</time>
      </trkpt>
      <trkpt lat="38.20046151056886" lon="-0.7482475508004427">
        <ele>-1.2000000476837158</ele>
        <time>2018-05-03T15:12:31.000Z</time>
      </trkpt>
      <trkpt lat="38.19996622391045" lon="-0.7478841952979565">
        <ele>-1.399999976158142</ele>
        <time>2018-05-03T15:12:38.000Z</time>
      </trkpt>
      <trkpt lat="38.19966045208275" lon="-0.7477213349193335">
        <ele>-1.399999976158142</ele>
        <time>2018-05-03T15:12:42.000Z</time>
      </trkpt>
      <trkpt lat="38.198735592886806" lon="-0.7472972106188536">
        <ele>-1.399999976158142</ele>
        <time>2018-05-03T15:12:54.000Z</time>
      </trkpt>
      <trkpt lat="38.19834834896028" lon="-0.7471145689487457">
        <ele>-1.2000000476837158</ele>
        <time>2018-05-03T15:12:59.000Z</time>
      </trkpt>
      <trkpt lat="38.197691794484854" lon="-0.7462868560105562">
        <ele>-1.7999999523162842</ele>
        <time>2018-05-03T15:13:11.000Z</time>
      </trkpt>
      <trkpt lat="38.19750831462443" lon="-0.7459658291190863">
        <ele>-1.7999999523162842</ele>
        <time>2018-05-03T15:13:15.000Z</time>
      </trkpt>
      <trkpt lat="38.19717907346785" lon="-0.7453872263431549">
        <ele>-1.2000000476837158</ele>
        <time>2018-05-03T15:13:22.000Z</time>
      </trkpt>
      <trkpt lat="38.196896351873875" lon="-0.7448951248079538">
        <ele>-0.800000011920929</ele>
        <time>2018-05-03T15:13:28.000Z</time>
      </trkpt>
      <trkpt lat="38.196825021877885" lon="-0.7447310909628868">
        <ele>-0.6000000238418579</ele>
        <time>2018-05-03T15:13:30.000Z</time>
      </trkpt>
      <trkpt lat="38.1967396941036" lon="-0.744378799572587">
        <ele>-0.20000000298023224</ele>
        <time>2018-05-03T15:13:36.000Z</time>
      </trkpt>
      <trkpt lat="38.19674220867455" lon="-0.744374105706811">
        <ele>2.5999999046325684</ele>
        <time>2018-05-03T15:16:04.000Z</time>
      </trkpt>
      <trkpt lat="38.19674220867455" lon="-0.744374105706811">
        <ele>2.5999999046325684</ele>
        <time>2018-05-03T15:16:05.000Z</time>
      </trkpt>
      <trkpt lat="38.19671815261245" lon="-0.7443694956600666">
        <ele>2.4000000953674316</ele>
        <time>2018-05-03T15:16:15.000Z</time>
      </trkpt>
      <trkpt lat="38.19669024087489" lon="-0.7443524803966284">
        <ele>2.4000000953674316</ele>
        <time>2018-05-03T15:16:17.000Z</time>
      </trkpt>
      <trkpt lat="38.19664933718741" lon="-0.7442282605916262">
        <ele>2.200000047683716</ele>
        <time>2018-05-03T15:16:21.000Z</time>
      </trkpt>
      <trkpt lat="38.19658789783716" lon="-0.7439910527318716">
        <ele>2.0</ele>
        <time>2018-05-03T15:16:25.000Z</time>
      </trkpt>
      <trkpt lat="38.19653794169426" lon="-0.7437702734023333">
        <ele>1.7999999523162842</ele>
        <time>2018-05-03T15:16:28.000Z</time>
      </trkpt>
      <trkpt lat="38.19650433026254" lon="-0.7436062395572662">
        <ele>1.600000023841858</ele>
        <time>2018-05-03T15:16:30.000Z</time>
      </trkpt>
      <trkpt lat="38.196448842063546" lon="-0.7433405332267284">
        <ele>0.4000000059604645</ele>
        <time>2018-05-03T15:16:33.000Z</time>
      </trkpt>
      <trkpt lat="38.196364771574736" lon="-0.742970472201705">
        <ele>-0.20000000298023224</ele>
        <time>2018-05-03T15:16:37.000Z</time>
      </trkpt>
      <trkpt lat="38.19632143713534" lon="-0.7427818793803453">
        <ele>-0.6000000238418579</ele>
        <time>2018-05-03T15:16:39.000Z</time>
      </trkpt>
      <trkpt lat="38.19625589065254" lon="-0.7424905244261026">
        <ele>-1.2000000476837158</ele>
        <time>2018-05-03T15:16:42.000Z</time>
      </trkpt>
      <trkpt lat="38.196169305592775" lon="-0.7421016041189432">
        <ele>-1.600000023841858</ele>
        <time>2018-05-03T15:16:46.000Z</time>
      </trkpt>
      <trkpt lat="38.196122869849205" lon="-0.7419091556221247">
        <ele>-1.600000023841858</ele>
        <time>2018-05-03T15:16:48.000Z</time>
      </trkpt>
      <trkpt lat="38.19603553041816" lon="-0.7415351551026106">
        <ele>-1.7999999523162842</ele>
        <time>2018-05-03T15:16:52.000Z</time>
      </trkpt>
      <trkpt lat="38.195871245115995" lon="-0.7408030796796083">
        <ele>-1.600000023841858</ele>
        <time>2018-05-03T15:17:00.000Z</time>
      </trkpt>
      <trkpt lat="38.195636719465256" lon="-0.7397867739200592">
        <ele>-1.0</ele>
        <time>2018-05-03T15:17:11.000Z</time>
      </trkpt>
      <trkpt lat="38.19383578374982" lon="-0.7360678911209106">
        <ele>3.5999999046325684</ele>
        <time>2018-05-03T15:18:07.000Z</time>
      </trkpt>
      <trkpt lat="38.193764202296734" lon="-0.7360656280070543">
        <ele>3.4000000953674316</ele>
        <time>2018-05-03T15:18:08.000Z</time>
      </trkpt>
      <trkpt lat="38.19354744628072" lon="-0.7360924500972033">
        <ele>3.5999999046325684</ele>
        <time>2018-05-03T15:18:11.000Z</time>
      </trkpt>
      <trkpt lat="38.19297228008509" lon="-0.7363121397793293">
        <ele>3.5999999046325684</ele>
        <time>2018-05-03T15:18:19.000Z</time>
      </trkpt>
      <trkpt lat="38.192443465813994" lon="-0.736536355689168">
        <ele>3.5999999046325684</ele>
        <time>2018-05-03T15:18:26.000Z</time>
      </trkpt>
      <trkpt lat="38.19197986274958" lon="-0.7367309834808111">
        <ele>3.4000000953674316</ele>
        <time>2018-05-03T15:18:32.000Z</time>
      </trkpt>
      <trkpt lat="38.191147623583674" lon="-0.7366513554006815">
        <ele>3.4000000953674316</ele>
        <time>2018-05-03T15:18:43.000Z</time>
      </trkpt>
      <trkpt lat="38.190882336348295" lon="-0.7363347709178925">
        <ele>2.200000047683716</ele>
        <time>2018-05-03T15:18:48.000Z</time>
      </trkpt>
      <trkpt lat="38.19052535109222" lon="-0.7357755303382874">
        <ele>1.7999999523162842</ele>
        <time>2018-05-03T15:18:56.000Z</time>
      </trkpt>
      <trkpt lat="38.190161157399416" lon="-0.7352079078555107">
        <ele>2.0</ele>
        <time>2018-05-03T15:19:04.000Z</time>
      </trkpt>
      <trkpt lat="38.18978405557573" lon="-0.7346354238688946">
        <ele>2.4000000953674316</ele>
        <time>2018-05-03T15:19:12.000Z</time>
      </trkpt>
      <trkpt lat="38.18941684439778" lon="-0.7340569887310266">
        <ele>2.5999999046325684</ele>
        <time>2018-05-03T15:19:20.000Z</time>
      </trkpt>
      <trkpt lat="38.18923395127058" lon="-0.7336605247110128">
        <ele>2.5999999046325684</ele>
        <time>2018-05-03T15:19:25.000Z</time>
      </trkpt>
      <trkpt lat="38.18925599567592" lon="-0.7329305447638035">
        <ele>3.0</ele>
        <time>2018-05-03T15:19:33.000Z</time>
      </trkpt>
      <trkpt lat="38.18928541615605" lon="-0.732842618599534">
        <ele>3.200000047683716</ele>
        <time>2018-05-03T15:19:34.000Z</time>
      </trkpt>
      <trkpt lat="38.18952304311097" lon="-0.7321231160312891">
        <ele>3.5999999046325684</ele>
        <time>2018-05-03T15:19:42.000Z</time>
      </trkpt>
      <trkpt lat="38.18974851630628" lon="-0.7314040325582027">
        <ele>3.799999952316284</ele>
        <time>2018-05-03T15:19:50.000Z</time>
      </trkpt>
      <trkpt lat="38.18988346494734" lon="-0.7308644894510508">
        <ele>4.0</ele>
        <time>2018-05-03T15:19:56.000Z</time>
      </trkpt>
      <trkpt lat="38.18981699645519" lon="-0.7301258761435747">
        <ele>3.799999952316284</ele>
        <time>2018-05-03T15:20:04.000Z</time>
      </trkpt>
      <trkpt lat="38.1898043397814" lon="-0.7299476768821478">
        <ele>3.799999952316284</ele>
        <time>2018-05-03T15:20:06.000Z</time>
      </trkpt>
      <trkpt lat="38.18977969698608" lon="-0.7292232289910316">
        <ele>3.5999999046325684</ele>
        <time>2018-05-03T15:20:14.000Z</time>
      </trkpt>
      <trkpt lat="38.18973619490862" lon="-0.728957187384367">
        <ele>3.799999952316284</ele>
        <time>2018-05-03T15:20:17.000Z</time>
      </trkpt>
      <trkpt lat="38.18960577249527" lon="-0.7286388427019119">
        <ele>3.799999952316284</ele>
        <time>2018-05-03T15:20:21.000Z</time>
      </trkpt>
      <trkpt lat="38.18928197957575" lon="-0.7280386984348297">
        <ele>3.799999952316284</ele>
        <time>2018-05-03T15:20:29.000Z</time>
      </trkpt>
      <trkpt lat="38.18895458243787" lon="-0.727433105930686">
        <ele>4.0</ele>
        <time>2018-05-03T15:20:37.000Z</time>
      </trkpt>
      <trkpt lat="38.188616540282965" lon="-0.7268022000789642">
        <ele>4.0</ele>
        <time>2018-05-03T15:20:45.000Z</time>
      </trkpt>
      <trkpt lat="38.18834060803056" lon="-0.7261532731354237">
        <ele>4.0</ele>
        <time>2018-05-03T15:20:53.000Z</time>
      </trkpt>
      <trkpt lat="38.188251927495" lon="-0.7254308369010687">
        <ele>4.0</ele>
        <time>2018-05-03T15:21:01.000Z</time>
      </trkpt>
      <trkpt lat="38.18825234659016" lon="-0.7246998511254787">
        <ele>4.0</ele>
        <time>2018-05-03T15:21:09.000Z</time>
      </trkpt>
      <trkpt lat="38.188259303569794" lon="-0.7241745572537184">
        <ele>4.199999809265137</ele>
        <time>2018-05-03T15:21:15.000Z</time>
      </trkpt>
      <trkpt lat="38.18825335241854" lon="-0.7234452478587627">
        <ele>4.800000190734863</ele>
        <time>2018-05-03T15:21:23.000Z</time>
      </trkpt>
      <trkpt lat="38.188242288306355" lon="-0.722710657864809">
        <ele>4.800000190734863</ele>
        <time>2018-05-03T15:21:31.000Z</time>
      </trkpt>
      <trkpt lat="38.1882244348526" lon="-0.7219890598207712">
        <ele>5.0</ele>
        <time>2018-05-03T15:21:39.000Z</time>
      </trkpt>
      <trkpt lat="38.1882035639137" lon="-0.7212209422141314">
        <ele>4.800000190734863</ele>
        <time>2018-05-03T15:21:48.000Z</time>
      </trkpt>
      <trkpt lat="38.18821990862489" lon="-0.7208103965967894">
        <ele>4.800000190734863</ele>
        <time>2018-05-03T15:21:53.000Z</time>
      </trkpt>
      <trkpt lat="38.188331639394164" lon="-0.7203320413827896">
        <ele>5.0</ele>
        <time>2018-05-03T15:21:59.000Z</time>
      </trkpt>
      <trkpt lat="38.18835343234241" lon="-0.7202527485787868">
        <ele>5.199999809265137</ele>
        <time>2018-05-03T15:22:00.000Z</time>
      </trkpt>
      <trkpt lat="38.18845803849399" lon="-0.7199453841894865">
        <ele>5.400000095367432</ele>
        <time>2018-05-03T15:22:04.000Z</time>
      </trkpt>
      <trkpt lat="38.1886525824666" lon="-0.7197332382202148">
        <ele>5.800000190734863</ele>
        <time>2018-05-03T15:22:08.000Z</time>
      </trkpt>
      <trkpt lat="38.18871117196977" lon="-0.7196976151317358">
        <ele>6.0</ele>
        <time>2018-05-03T15:22:09.000Z</time>
      </trkpt>
      <trkpt lat="38.18889155052602" lon="-0.7196232676506042">
        <ele>6.400000095367432</ele>
        <time>2018-05-03T15:22:12.000Z</time>
      </trkpt>
      <trkpt lat="38.188950810581446" lon="-0.719597116112709">
        <ele>6.800000190734863</ele>
        <time>2018-05-03T15:22:13.000Z</time>
      </trkpt>
      <trkpt lat="38.18908634595573" lon="-0.719411876052618">
        <ele>7.400000095367432</ele>
        <time>2018-05-03T15:22:17.000Z</time>
      </trkpt>
      <trkpt lat="38.18901116028428" lon="-0.7192339282482862">
        <ele>7.400000095367432</ele>
        <time>2018-05-03T15:22:20.000Z</time>
      </trkpt>
      <trkpt lat="38.18878476507962" lon="-0.7185157667845488">
        <ele>6.599999904632568</ele>
        <time>2018-05-03T15:22:29.000Z</time>
      </trkpt>
      <trkpt lat="38.1887442804873" lon="-0.7183379027992487">
        <ele>6.400000095367432</ele>
        <time>2018-05-03T15:22:31.000Z</time>
      </trkpt>
      <trkpt lat="38.18857974372804" lon="-0.7176205795258284">
        <ele>5.599999904632568</ele>
        <time>2018-05-03T15:22:39.000Z</time>
      </trkpt>
      <trkpt lat="38.18851570598781" lon="-0.7173455692827702">
        <ele>5.400000095367432</ele>
        <time>2018-05-03T15:22:42.000Z</time>
      </trkpt>
      <trkpt lat="38.188353683799505" lon="-0.7166173495352268">
        <ele>5.400000095367432</ele>
        <time>2018-05-03T15:22:50.000Z</time>
      </trkpt>
      <trkpt lat="38.188236840069294" lon="-0.7159068156033754">
        <ele>5.800000190734863</ele>
        <time>2018-05-03T15:22:58.000Z</time>
      </trkpt>
      <trkpt lat="38.18817841820419" lon="-0.7152003888040781">
        <ele>6.0</ele>
        <time>2018-05-03T15:23:06.000Z</time>
      </trkpt>
      <trkpt lat="38.18815444596112" lon="-0.7145082950592041">
        <ele>5.800000190734863</ele>
        <time>2018-05-03T15:23:14.000Z</time>
      </trkpt>
      <trkpt lat="38.188064424321055" lon="-0.7137490622699261">
        <ele>6.199999809265137</ele>
        <time>2018-05-03T15:23:23.000Z</time>
      </trkpt>
      <trkpt lat="38.187895277515054" lon="-0.7130182441323996">
        <ele>6.599999904632568</ele>
        <time>2018-05-03T15:23:32.000Z</time>
      </trkpt>
      <trkpt lat="38.18772026337683" lon="-0.7123525533825159">
        <ele>7.0</ele>
        <time>2018-05-03T15:23:40.000Z</time>
      </trkpt>
      <trkpt lat="38.18750820122659" lon="-0.7117089908570051">
        <ele>7.199999809265137</ele>
        <time>2018-05-03T15:23:48.000Z</time>
      </trkpt>
      <trkpt lat="38.18729395978153" lon="-0.7110774144530296">
        <ele>7.0</ele>
        <time>2018-05-03T15:23:56.000Z</time>
      </trkpt>
      <trkpt lat="38.18711668252945" lon="-0.7103583309799433">
        <ele>7.199999809265137</ele>
        <time>2018-05-03T15:24:05.000Z</time>
      </trkpt>
      <trkpt lat="38.18709195591509" lon="-0.7096534967422485">
        <ele>7.800000190734863</ele>
        <time>2018-05-03T15:24:13.000Z</time>
      </trkpt>
      <trkpt lat="38.18707435391843" lon="-0.7089138776063919">
        <ele>8.0</ele>
        <time>2018-05-03T15:24:21.000Z</time>
      </trkpt>
      <trkpt lat="38.18705121986568" lon="-0.7081403117626905">
        <ele>8.0</ele>
        <time>2018-05-03T15:24:29.000Z</time>
      </trkpt>
      <trkpt lat="38.187031941488385" lon="-0.7074481341987848">
        <ele>8.0</ele>
        <time>2018-05-03T15:24:36.000Z</time>
      </trkpt>
      <trkpt lat="38.18703663535416" lon="-0.7066761609166861">
        <ele>8.199999809265137</ele>
        <time>2018-05-03T15:24:44.000Z</time>
      </trkpt>
      <trkpt lat="38.18704778328538" lon="-0.706478264182806">
        <ele>8.199999809265137</ele>
        <time>2018-05-03T15:24:46.000Z</time>
      </trkpt>
      <trkpt lat="38.18708441220224" lon="-0.705754067748785">
        <ele>8.0</ele>
        <time>2018-05-03T15:24:53.000Z</time>
      </trkpt>
      <trkpt lat="38.18712682463229" lon="-0.7050266861915588">
        <ele>7.599999904632568</ele>
        <time>2018-05-03T15:25:00.000Z</time>
      </trkpt>
      <trkpt lat="38.18717527203262" lon="-0.7045148871839046">
        <ele>7.0</ele>
        <time>2018-05-03T15:25:05.000Z</time>
      </trkpt>
      <trkpt lat="38.18724316544831" lon="-0.7038351986557245">
        <ele>6.400000095367432</ele>
        <time>2018-05-03T15:25:12.000Z</time>
      </trkpt>
      <trkpt lat="38.18731759674847" lon="-0.7030922267585993">
        <ele>6.400000095367432</ele>
        <time>2018-05-03T15:25:20.000Z</time>
      </trkpt>
      <trkpt lat="38.18739068694413" lon="-0.7023143023252487">
        <ele>7.400000095367432</ele>
        <time>2018-05-03T15:25:28.000Z</time>
      </trkpt>
      <trkpt lat="38.187413485720754" lon="-0.7018322590738535">
        <ele>7.400000095367432</ele>
        <time>2018-05-03T15:25:33.000Z</time>
      </trkpt>
      <trkpt lat="38.1872074585408" lon="-0.701340576633811">
        <ele>8.199999809265137</ele>
        <time>2018-05-03T15:25:43.000Z</time>
      </trkpt>
      <trkpt lat="38.187364619225264" lon="-0.7009229063987732">
        <ele>8.199999809265137</ele>
        <time>2018-05-03T15:25:49.000Z</time>
      </trkpt>
      <trkpt lat="38.187459502369165" lon="-0.7001556269824505">
        <ele>8.0</ele>
        <time>2018-05-03T15:25:57.000Z</time>
      </trkpt>
      <trkpt lat="38.1874889228493" lon="-0.6998608354479074">
        <ele>6.800000190734863</ele>
        <time>2018-05-03T15:26:00.000Z</time>
      </trkpt>
      <trkpt lat="38.187518594786525" lon="-0.6992882676422596">
        <ele>5.800000190734863</ele>
        <time>2018-05-03T15:26:06.000Z</time>
      </trkpt>
      <trkpt lat="38.187646586447954" lon="-0.6985525041818619">
        <ele>5.0</ele>
        <time>2018-05-03T15:26:14.000Z</time>
      </trkpt>
      <trkpt lat="38.18796409294009" lon="-0.6979107018560171">
        <ele>5.800000190734863</ele>
        <time>2018-05-03T15:26:22.000Z</time>
      </trkpt>
      <trkpt lat="38.18836843594909" lon="-0.6973245553672314">
        <ele>6.199999809265137</ele>
        <time>2018-05-03T15:26:30.000Z</time>
      </trkpt>
      <trkpt lat="38.18875375203788" lon="-0.6967213097959757">
        <ele>6.199999809265137</ele>
        <time>2018-05-03T15:26:38.000Z</time>
      </trkpt>
      <trkpt lat="38.1889964081347" lon="-0.6961040664464235">
        <ele>6.199999809265137</ele>
        <time>2018-05-03T15:26:45.000Z</time>
      </trkpt>
      <trkpt lat="38.18921282887459" lon="-0.6954675447195768">
        <ele>5.599999904632568</ele>
        <time>2018-05-03T15:26:52.000Z</time>
      </trkpt>
      <trkpt lat="38.1894486118108" lon="-0.6948461104184389">
        <ele>5.199999809265137</ele>
        <time>2018-05-03T15:26:59.000Z</time>
      </trkpt>
      <trkpt lat="38.18976134061813" lon="-0.6942864507436752">
        <ele>5.199999809265137</ele>
        <time>2018-05-03T15:27:06.000Z</time>
      </trkpt>
      <trkpt lat="38.19014959037304" lon="-0.6936946045607328">
        <ele>5.400000095367432</ele>
        <time>2018-05-03T15:27:14.000Z</time>
      </trkpt>
      <trkpt lat="38.19052719511092" lon="-0.6931024231016636">
        <ele>5.599999904632568</ele>
        <time>2018-05-03T15:27:22.000Z</time>
      </trkpt>
      <trkpt lat="38.19078292697668" lon="-0.6924916338175535">
        <ele>5.199999809265137</ele>
        <time>2018-05-03T15:27:29.000Z</time>
      </trkpt>
      <trkpt lat="38.190846210345626" lon="-0.6922029610723257">
        <ele>4.800000190734863</ele>
        <time>2018-05-03T15:27:32.000Z</time>
      </trkpt>
      <trkpt lat="38.19096623919904" lon="-0.6915267091244459">
        <ele>4.199999809265137</ele>
        <time>2018-05-03T15:27:39.000Z</time>
      </trkpt>
      <trkpt lat="38.19108576513827" lon="-0.6908548157662153">
        <ele>3.799999952316284</ele>
        <time>2018-05-03T15:27:46.000Z</time>
      </trkpt>
      <trkpt lat="38.19120017811656" lon="-0.6901798211038113">
        <ele>4.0</ele>
        <time>2018-05-03T15:27:53.000Z</time>
      </trkpt>
      <trkpt lat="38.191281566396356" lon="-0.6894662696868181">
        <ele>4.0</ele>
        <time>2018-05-03T15:28:00.000Z</time>
      </trkpt>
      <trkpt lat="38.19130780175328" lon="-0.6891560554504395">
        <ele>3.799999952316284</ele>
        <time>2018-05-03T15:28:03.000Z</time>
      </trkpt>
      <trkpt lat="38.19131534546614" lon="-0.6890529580414295">
        <ele>3.799999952316284</ele>
        <time>2018-05-03T15:28:04.000Z</time>
      </trkpt>
      <trkpt lat="38.19138726219535" lon="-0.6881318707019091">
        <ele>3.5999999046325684</ele>
        <time>2018-05-03T15:28:13.000Z</time>
      </trkpt>
      <trkpt lat="38.19151282310486" lon="-0.6873704586178064">
        <ele>3.4000000953674316</ele>
        <time>2018-05-03T15:28:21.000Z</time>
      </trkpt>
      <trkpt lat="38.19183309562504" lon="-0.6867133174091578">
        <ele>3.799999952316284</ele>
        <time>2018-05-03T15:28:29.000Z</time>
      </trkpt>
      <trkpt lat="38.19218488410115" lon="-0.686156926676631">
        <ele>4.400000095367432</ele>
        <time>2018-05-03T15:28:36.000Z</time>
      </trkpt>
      <trkpt lat="38.19250741973519" lon="-0.685575557872653">
        <ele>4.400000095367432</ele>
        <time>2018-05-03T15:28:43.000Z</time>
      </trkpt>
      <trkpt lat="38.19280598312616" lon="-0.685000391677022">
        <ele>4.400000095367432</ele>
        <time>2018-05-03T15:28:50.000Z</time>
      </trkpt>
      <trkpt lat="38.19284839555621" lon="-0.6849205959588289">
        <ele>4.400000095367432</ele>
        <time>2018-05-03T15:28:51.000Z</time>
      </trkpt>
    </trkseg>
  </trk>
</gpx>
